Time;durP1;ratioP1;P1;durP2;ratioP2;P2;SDS_P1;SDS_P2;PMS_P1;PMS_P2;Temp;Humidity;BMP_temperature;BMP_pressure;BME280_temperature;BME280_humidity;BME280_pressure;Samples;Min_cycle;Max_cycle;Signal;HPM_P1;HPM_P2
2023/06/29 00:01:55;;;;;;;22.52;18.30;;;18.60;99.90;;;;;;5060853;28;20052;-85
2023/06/29 00:04:25;;;;;;;23.52;19.15;;;18.50;99.90;;;;;;5064734;28;20106;-84
2023/06/29 00:06:52;;;;;;;25.80;21.25;;;18.60;99.90;;;;;;5062067;28;20055;-85
2023/06/29 00:09:19;;;;;;;23.88;20.30;;;18.60;99.90;;;;;;5080655;28;20056;-84
2023/06/29 00:11:45;;;;;;;25.40;19.85;;;18.60;99.90;;;;;;5059905;28;20471;-85
2023/06/29 00:14:10;;;;;;;23.05;19.10;;;18.90;99.90;;;;;;5046601;28;20054;-85
2023/06/29 00:16:36;;;;;;;28.95;20.25;;;18.50;99.90;;;;;;5065379;28;20048;-85
2023/06/29 00:19:02;;;;;;;24.80;19.38;;;18.50;99.90;;;;;;5066719;28;20044;-85
2023/06/29 00:21:31;;;;;;;28.42;19.67;;;18.70;99.90;;;;;;5063807;28;20466;-84
2023/06/29 00:23:57;;;;;;;23.30;20.42;;;18.50;99.90;;;;;;5065903;28;20055;-84
2023/06/29 00:26:22;;;;;;;27.10;21.02;;;18.50;99.90;;;;;;5061966;28;20040;-85
2023/06/29 00:28:48;;;;;;;23.27;18.45;;;18.50;99.90;;;;;;5064117;28;20086;-85
2023/06/29 00:31:13;;;;;;;22.70;19.48;;;18.50;99.90;;;;;;5064688;28;20408;-85
2023/06/29 00:33:39;;;;;;;26.98;21.00;;;18.40;99.90;;;;;;5066273;28;20102;-85
2023/06/29 00:36:05;;;;;;;29.10;21.58;;;18.50;99.90;;;;;;5064209;28;20037;-85
2023/06/29 00:38:30;;;;;;;25.15;19.30;;;18.50;99.90;;;;;;5064678;28;20450;-85
2023/06/29 00:40:56;;;;;;;29.63;21.25;;;18.50;99.90;;;;;;5064733;28;20146;-84
2023/06/29 00:43:23;;;;;;;26.33;21.25;;;18.50;99.90;;;;;;5045281;28;20469;-85
2023/06/29 00:45:48;;;;;;;28.58;20.58;;;18.70;99.90;;;;;;5054036;28;20049;-85
2023/06/29 00:48:15;;;;;;;26.10;20.98;;;18.50;99.90;;;;;;5060760;28;20040;-85
2023/06/29 00:50:41;;;;;;;28.10;21.20;;;18.50;99.90;;;;;;5062976;28;20529;-84
2023/06/29 00:53:07;;;;;;;29.75;21.13;;;18.50;99.90;;;;;;5064696;28;20129;-85
2023/06/29 00:55:33;;;;;;;27.33;22.33;;;18.40;99.90;;;;;;5064292;28;20071;-85
2023/06/29 00:57:59;;;;;;;29.20;20.73;;;18.70;99.90;;;;;;5064673;28;20547;-85
2023/06/29 01:00:24;;;;;;;26.27;21.08;;;18.40;99.90;;;;;;5052380;28;20037;-85
2023/06/29 01:02:50;;;;;;;27.85;23.05;;;18.80;99.90;;;;;;5049119;28;20123;-85
2023/06/29 01:05:16;;;;;;;27.52;22.17;;;18.50;99.90;;;;;;5062920;28;20582;-85
2023/06/29 01:08:02;;;;;;;29.05;22.58;;;18.40;99.90;;;;;;5044151;28;20033;-85
2023/06/29 01:10:32;;;;;;;26.10;20.17;;;18.40;99.90;;;;;;5064722;28;20048;-85
2023/06/29 01:13:01;;;;;;;28.23;21.73;;;18.40;99.90;;;;;;5064908;28;20512;-85
2023/06/29 01:15:27;;;;;;;27.98;22.13;;;18.70;99.90;;;;;;5048889;28;20446;-85
2023/06/29 01:17:57;;;;;;;34.47;22.60;;;18.40;99.90;;;;;;5063532;28;20116;-85
2023/06/29 01:20:26;;;;;;;28.10;22.75;;;18.40;99.90;;;;;;5064534;28;20047;-85
2023/06/29 01:22:52;;;;;;;29.50;20.60;;;18.40;99.90;;;;;;5064323;28;20053;-85
2023/06/29 01:25:20;;;;;;;24.10;19.65;;;18.20;99.90;;;;;;5039318;28;20087;-84
2023/06/29 01:27:46;;;;;;;24.50;21.35;;;18.50;99.90;;;;;;5044173;28;20357;-85
2023/06/29 01:30:13;;;;;;;27.40;21.73;;;18.40;99.90;;;;;;5066267;28;20044;-85
2023/06/29 01:32:39;;;;;;;26.13;21.80;;;18.30;99.90;;;;;;5048508;28;20421;-85
2023/06/29 01:35:09;;;;;;;26.60;20.45;;;18.70;99.90;;;;;;5063458;28;20539;-85
2023/06/29 01:37:52;;;;;;;26.17;19.98;;;18.40;99.90;;;;;;5060977;28;20523;-85
2023/06/29 01:40:23;;;;;;;26.70;21.00;;;18.40;99.90;;;;;;5052684;28;20049;-85
2023/06/29 01:42:50;;;;;;;30.25;22.63;;;18.30;99.90;;;;;;5061859;28;20048;-86
2023/06/29 01:45:19;;;;;;;30.55;22.45;;;18.30;99.90;;;;;;5068160;28;20036;-85
2023/06/29 01:47:44;;;;;;;30.13;23.05;;;18.30;99.90;;;;;;5064702;28;20060;-85
2023/06/29 01:50:11;;;;;;;29.65;21.50;;;18.50;99.90;;;;;;5064971;28;20064;-84
2023/06/29 01:52:37;;;;;;;26.75;20.70;;;18.20;99.90;;;;;;5051124;28;20056;-84
2023/06/29 01:55:03;;;;;;;28.83;21.17;;;18.30;99.90;;;;;;5067512;28;20045;-85
2023/06/29 01:57:29;;;;;;;30.05;21.95;;;18.20;99.90;;;;;;5068232;28;20109;-85
2023/06/29 01:59:55;;;;;;;27.83;21.95;;;18.30;99.90;;;;;;5066211;28;20415;-84
2023/06/29 02:02:21;;;;;;;28.88;23.10;;;18.30;99.90;;;;;;5064680;28;20033;-85
2023/06/29 02:04:46;;;;;;;25.05;21.05;;;18.30;99.90;;;;;;5067765;28;20066;-85
2023/06/29 02:07:12;;;;;;;29.02;22.30;;;18.30;99.90;;;;;;5068733;28;20068;-85
2023/06/29 02:09:37;;;;;;;27.33;22.08;;;18.30;99.90;;;;;;5068689;28;20510;-86
2023/06/29 02:12:03;;;;;;;27.02;21.92;;;18.20;99.90;;;;;;5066999;28;20051;-85
2023/06/29 02:14:29;;;;;;;29.50;22.48;;;18.30;99.90;;;;;;5069070;28;20097;-86
2023/06/29 02:16:55;;;;;;;26.00;21.42;;;18.30;99.90;;;;;;5069316;28;20818;-85
2023/06/29 02:19:20;;;;;;;29.85;22.98;;;18.30;99.90;;;;;;5066415;28;20044;-85
2023/06/29 02:21:46;;;;;;;27.23;22.48;;;18.20;99.90;;;;;;5068440;28;20078;-85
2023/06/29 02:24:11;;;;;;;28.00;21.02;;;18.20;99.90;;;;;;5066902;28;20082;-85
2023/06/29 02:26:37;;;;;;;25.38;20.02;;;18.20;99.90;;;;;;5067211;28;20044;-85
2023/06/29 02:29:03;;;;;;;26.25;21.60;;;18.30;99.90;;;;;;5066680;28;20037;-85
2023/06/29 02:31:29;;;;;;;28.55;21.20;;;18.20;99.90;;;;;;5068010;28;20044;-85
2023/06/29 02:33:55;;;;;;;28.30;20.55;;;18.20;99.90;;;;;;5067532;28;20052;-85
2023/06/29 02:36:22;;;;;;;28.92;22.17;;;18.20;99.90;;;;;;5050788;28;20075;-86
2023/06/29 02:38:48;;;;;;;29.50;21.85;;;18.20;99.90;;;;;;5064846;28;20807;-85
2023/06/29 02:41:14;;;;;;;26.38;21.00;;;18.20;99.90;;;;;;5083325;28;20356;-85
2023/06/29 02:43:39;;;;;;;26.48;20.60;;;18.20;99.90;;;;;;5050188;28;20070;-86
2023/06/29 02:46:05;;;;;;;26.40;21.45;;;18.00;99.90;;;;;;5068374;28;20135;-86
2023/06/29 02:48:30;;;;;;;27.98;22.95;;;18.20;99.90;;;;;;5061705;28;20037;-86
2023/06/29 02:50:56;;;;;;;26.08;21.92;;;18.30;99.90;;;;;;5067154;28;20056;-85
2023/06/29 02:53:22;;;;;;;28.45;21.20;;;18.10;99.90;;;;;;5066007;28;20087;-86
2023/06/29 02:55:48;;;;;;;27.35;22.33;;;18.20;99.90;;;;;;5064302;28;20083;-85
2023/06/29 02:58:13;;;;;;;26.13;21.45;;;18.40;99.90;;;;;;5067244;28;20041;-85
2023/06/29 03:00:39;;;;;;;29.02;22.83;;;18.20;99.90;;;;;;5066304;28;20072;-85
2023/06/29 03:03:04;;;;;;;27.00;21.55;;;18.30;99.90;;;;;;5067102;28;20055;-85
2023/06/29 03:05:30;;;;;;;28.30;21.80;;;18.30;99.90;;;;;;5046769;28;20067;-85
2023/06/29 03:07:56;;;;;;;26.77;22.00;;;18.20;99.90;;;;;;5063304;28;20048;-86
2023/06/29 03:10:21;;;;;;;28.80;21.77;;;18.20;99.90;;;;;;5065881;28;20131;-85
2023/06/29 03:12:47;;;;;;;26.35;21.45;;;18.20;99.90;;;;;;5044559;28;20041;-85
2023/06/29 03:15:13;;;;;;;30.08;22.80;;;18.60;99.90;;;;;;5044806;28;20040;-84
2023/06/29 03:17:38;;;;;;;33.25;22.42;;;18.20;99.90;;;;;;5045129;28;20036;-84
2023/06/29 03:20:06;;;;;;;24.95;21.10;;;18.20;99.90;;;;;;5065434;28;20077;-85
2023/06/29 03:22:32;;;;;;;32.13;23.10;;;18.20;99.90;;;;;;5064257;28;20040;-85
2023/06/29 03:24:58;;;;;;;30.40;22.55;;;18.20;99.90;;;;;;5063339;28;20416;-84
2023/06/29 03:27:23;;;;;;;30.10;22.15;;;18.20;99.90;;;;;;5064351;28;20094;-85
2023/06/29 03:29:51;;;;;;;26.85;21.88;;;18.60;99.90;;;;;;5066150;28;20079;-84
2023/06/29 03:32:16;;;;;;;28.00;23.00;;;18.20;99.90;;;;;;5065979;28;20381;-84
2023/06/29 03:34:42;;;;;;;28.88;23.25;;;18.20;99.90;;;;;;5066263;28;20049;-84
2023/06/29 03:37:07;;;;;;;30.13;22.77;;;17.90;99.90;;;;;;5063131;28;20036;-84
2023/06/29 03:39:33;;;;;;;34.50;24.27;;;18.20;99.90;;;;;;5064693;28;20132;-85
2023/06/29 03:41:59;;;;;;;29.60;24.00;;;18.20;99.90;;;;;;5066764;28;20098;-85
2023/06/29 03:44:24;;;;;;;29.40;23.20;;;18.20;99.90;;;;;;5065157;28;20046;-84
2023/06/29 03:46:50;;;;;;;32.58;23.13;;;18.40;99.90;;;;;;5048407;28;20045;-84
2023/06/29 03:49:21;;;;;;;30.02;22.83;;;18.30;99.90;;;;;;5060820;28;20269;-86
2023/06/29 03:51:46;;;;;;;26.38;20.92;;;18.30;99.90;;;;;;5049666;28;20566;-83
2023/06/29 03:54:12;;;;;;;30.95;23.75;;;18.30;99.90;;;;;;5063736;28;20056;-84
2023/06/29 03:56:38;;;;;;;30.70;23.02;;;18.30;99.90;;;;;;5056845;28;20127;-84
2023/06/29 03:59:03;;;;;;;27.63;22.92;;;18.40;99.90;;;;;;5066016;28;20071;-84
2023/06/29 04:01:29;;;;;;;28.90;23.95;;;18.30;99.90;;;;;;5065524;28;20048;-84
2023/06/29 04:03:54;;;;;;;28.30;22.33;;;18.30;99.90;;;;;;5064342;28;20587;-84
2023/06/29 04:06:20;;;;;;;30.20;23.27;;;18.50;99.90;;;;;;5064899;28;20044;-84
2023/06/29 04:08:46;;;;;;;30.63;24.25;;;18.40;99.90;;;;;;5065190;28;20051;-85
2023/06/29 04:11:12;;;;;;;27.50;22.88;;;18.40;99.90;;;;;;5081028;28;20048;-85
2023/06/29 04:13:38;;;;;;;27.15;21.73;;;18.50;99.90;;;;;;5060917;28;20127;-84
2023/06/29 04:16:03;;;;;;;27.70;21.63;;;18.50;99.90;;;;;;5062252;28;20133;-87
2023/06/29 04:18:29;;;;;;;32.78;23.80;;;18.50;99.90;;;;;;5060467;28;20045;-86
2023/06/29 04:20:55;;;;;;;29.95;22.02;;;18.70;99.90;;;;;;5038320;28;20041;-86
2023/06/29 04:23:20;;;;;;;32.78;22.92;;;18.50;99.90;;;;;;5060742;28;20040;-85
2023/06/29 04:25:46;;;;;;;29.42;23.90;;;18.70;99.90;;;;;;5060478;28;20041;-84
2023/06/29 04:28:12;;;;;;;28.40;23.05;;;18.60;99.90;;;;;;5062440;28;20507;-86
2023/06/29 04:30:42;;;;;;;30.27;23.15;;;18.60;99.90;;;;;;5048556;28;20079;-86
2023/06/29 04:33:11;;;;;;;28.35;22.95;;;18.70;99.90;;;;;;5064612;28;20131;-86
2023/06/29 04:35:40;;;;;;;30.00;22.30;;;18.70;99.90;;;;;;5049167;28;20536;-86
2023/06/29 04:38:08;;;;;;;27.15;23.25;;;19.10;99.90;;;;;;5063585;28;20040;-87
2023/06/29 04:40:35;;;;;;;31.98;25.15;;;18.80;99.90;;;;;;5061754;28;20083;-85
2023/06/29 04:43:01;;;;;;;28.23;22.85;;;18.80;99.90;;;;;;5066148;28;20419;-86
2023/06/29 04:45:28;;;;;;;29.20;21.98;;;18.90;99.90;;;;;;5065460;28;20041;-85
2023/06/29 04:47:56;;;;;;;29.65;22.70;;;19.00;99.90;;;;;;5066900;28;20078;-86
2023/06/29 04:50:25;;;;;;;27.23;23.05;;;19.00;99.90;;;;;;5064441;28;20053;-86
2023/06/29 04:52:53;;;;;;;30.67;23.65;;;19.10;99.90;;;;;;5045978;28;20044;-86
2023/06/29 04:55:18;;;;;;;29.25;23.48;;;19.20;99.90;;;;;;5066761;28;20115;-86
2023/06/29 04:57:44;;;;;;;26.90;23.08;;;19.20;99.90;;;;;;5058892;28;20127;-85
2023/06/29 05:00:11;;;;;;;31.27;23.48;;;19.60;99.90;;;;;;5064123;28;20153;-85
2023/06/29 05:02:38;;;;;;;28.27;22.58;;;19.30;99.90;;;;;;5066478;28;20059;-85
2023/06/29 05:05:04;;;;;;;33.03;23.63;;;19.50;99.90;;;;;;5065357;28;20071;-85
2023/06/29 05:07:30;;;;;;;27.77;22.92;;;19.40;99.90;;;;;;5064557;28;20391;-85
2023/06/29 05:09:55;;;;;;;30.85;24.20;;;19.60;99.90;;;;;;5047819;28;20048;-86
2023/06/29 05:12:22;;;;;;;32.28;24.00;;;19.40;99.90;;;;;;5047108;28;20037;-85
2023/06/29 05:14:47;;;;;;;29.13;23.77;;;19.80;99.90;;;;;;5049012;28;20056;-86
2023/06/29 05:17:13;;;;;;;29.98;23.33;;;19.50;99.90;;;;;;5048917;28;20124;-85
2023/06/29 05:19:39;;;;;;;28.40;22.55;;;19.80;99.90;;;;;;5069415;28;20048;-85
2023/06/29 05:22:04;;;;;;;31.33;23.88;;;19.70;99.90;;;;;;5070413;28;20557;-85
2023/06/29 05:24:30;;;;;;;31.75;23.50;;;20.00;99.90;;;;;;5068280;28;20040;-86
2023/06/29 05:26:56;;;;;;;31.40;23.65;;;19.90;99.90;;;;;;5054210;28;20086;-87
2023/06/29 05:29:22;;;;;;;31.50;22.25;;;20.00;99.90;;;;;;5069043;28;20064;-85
2023/06/29 05:31:47;;;;;;;31.65;22.83;;;20.10;99.90;;;;;;5071083;28;20113;-85
2023/06/29 05:34:13;;;;;;;31.25;23.52;;;20.20;99.90;;;;;;5052834;28;20044;-85
2023/06/29 05:36:38;;;;;;;30.65;22.48;;;20.40;99.90;;;;;;5070606;28;20040;-84
2023/06/29 05:39:05;;;;;;;27.42;21.77;;;20.30;99.90;;;;;;5071207;28;20453;-86
2023/06/29 05:41:31;;;;;;;28.38;22.17;;;20.60;99.90;;;;;;5070005;28;20087;-86
2023/06/29 05:43:57;;;;;;;29.60;21.67;;;20.70;99.90;;;;;;5070262;28;20040;-86
2023/06/29 05:46:23;;;;;;;27.33;20.27;;;20.90;99.90;;;;;;5070679;28;20043;-87
2023/06/29 05:48:48;;;;;;;27.70;21.40;;;21.00;99.90;;;;;;5053372;28;20521;-86
2023/06/29 05:51:15;;;;;;;22.77;19.02;;;21.00;99.90;;;;;;5054456;28;20091;-88
2023/06/29 05:53:40;;;;;;;25.17;19.60;;;21.20;99.90;;;;;;5037496;28;20076;-86
2023/06/29 05:56:06;;;;;;;28.33;20.58;;;21.20;99.90;;;;;;5047691;28;20122;-88
2023/06/29 05:58:33;;;;;;;30.83;20.70;;;21.30;99.90;;;;;;5053398;28;20522;-88
2023/06/29 06:01:01;;;;;;;24.90;19.63;;;21.30;99.90;;;;;;5070426;28;20049;-87
2023/06/29 06:03:26;;;;;;;25.92;20.45;;;21.60;99.90;;;;;;5070961;28;20051;-89
2023/06/29 06:05:57;;;;;;;25.20;20.55;;;21.20;99.90;;;;;;5056149;28;20438;-90
2023/06/29 06:08:22;;;;;;;25.75;21.35;;;21.30;99.90;;;;;;5057198;28;20484;-87
2023/06/29 06:10:48;;;;;;;28.10;21.20;;;21.40;99.90;;;;;;5057802;28;20055;-87
2023/06/29 06:13:14;;;;;;;25.45;20.50;;;21.50;99.90;;;;;;5050319;28;20045;-88
2023/06/29 06:15:41;;;;;;;27.00;20.38;;;21.60;99.90;;;;;;5038200;28;20444;-88
2023/06/29 06:18:06;;;;;;;24.77;19.60;;;21.70;99.90;;;;;;5038440;28;20085;-87
2023/06/29 06:20:32;;;;;;;25.58;20.25;;;21.70;99.90;;;;;;5055567;28;20056;-87
2023/06/29 06:22:58;;;;;;;26.90;19.08;;;21.60;99.90;;;;;;5064268;28;20108;-87
2023/06/29 06:25:24;;;;;;;28.45;21.27;;;21.30;99.90;;;;;;5083300;28;20041;-87
2023/06/29 06:27:51;;;;;;;29.63;20.80;;;21.00;99.90;;;;;;5074862;28;20052;-87
2023/06/29 06:30:16;;;;;;;25.95;19.65;;;21.10;99.90;;;;;;5067713;28;20036;-88
2023/06/29 06:32:42;;;;;;;26.95;20.70;;;21.10;99.90;;;;;;5068641;28;20515;-87
2023/06/29 06:35:08;;;;;;;27.38;20.88;;;21.00;99.90;;;;;;5054586;28;20139;-89
2023/06/29 06:37:39;;;;;;;24.35;19.85;;;20.90;99.90;;;;;;5074032;28;20125;-88
2023/06/29 06:40:11;;;;;;;28.45;20.05;;;20.90;99.90;;;;;;5071024;28;20051;-88
2023/06/29 06:42:40;;;;;;;24.92;20.30;;;20.90;99.90;;;;;;5056462;28;20159;-89
2023/06/29 06:45:07;;;;;;;24.92;19.90;;;21.00;99.90;;;;;;5058044;28;20051;-89
2023/06/29 06:47:34;;;;;;;27.35;20.30;;;20.80;99.90;;;;;;5054795;28;20058;-87
2023/06/29 06:50:00;;;;;;;23.58;19.73;;;20.80;99.90;;;;;;5070863;28;20056;-86
2023/06/29 06:52:26;;;;;;;26.92;21.08;;;20.90;99.90;;;;;;5072190;28;20060;-91
2023/06/29 06:54:52;;;;;;;25.08;19.95;;;20.70;99.90;;;;;;5054319;28;20488;-87
2023/06/29 06:57:18;;;;;;;25.92;20.60;;;20.90;99.90;;;;;;5072484;28;20044;-88
2023/06/29 06:59:44;;;;;;;23.70;19.48;;;20.70;99.90;;;;;;5054125;28;20046;-87
2023/06/29 07:02:10;;;;;;;26.38;21.17;;;20.60;99.90;;;;;;5056385;28;20049;-87
2023/06/29 07:04:35;;;;;;;28.73;22.02;;;20.50;99.90;;;;;;5071997;28;20397;-87
2023/06/29 07:07:02;;;;;;;26.23;20.92;;;20.40;99.90;;;;;;5069463;28;20048;-88
2023/06/29 07:09:28;;;;;;;28.98;21.70;;;20.50;99.90;;;;;;5053979;28;20045;-87
2023/06/29 07:11:54;;;;;;;27.30;21.02;;;20.40;99.90;;;;;;5055821;28;20058;-89
2023/06/29 07:14:21;;;;;;;27.30;21.98;;;20.40;99.90;;;;;;5074806;28;20045;-89
2023/06/29 07:16:47;;;;;;;27.38;21.33;;;20.40;99.90;;;;;;5060011;28;20048;-89
2023/06/29 07:19:14;;;;;;;31.13;21.45;;;20.30;99.90;;;;;;5050911;28;20045;-88
2023/06/29 07:21:40;;;;;;;25.08;20.17;;;20.70;99.90;;;;;;5068615;28;20393;-85
2023/06/29 07:24:06;;;;;;;30.05;21.25;;;20.60;99.90;;;;;;5069280;28;20049;-86
2023/06/29 07:26:32;;;;;;;29.88;21.95;;;20.60;99.90;;;;;;5068661;28;20120;-86
2023/06/29 07:28:58;;;;;;;29.67;21.17;;;21.00;99.90;;;;;;5067013;28;20201;-85
2023/06/29 07:31:27;;;;;;;31.15;22.33;;;20.80;99.90;;;;;;5069732;28;20040;-87
2023/06/29 07:33:55;;;;;;;30.45;21.40;;;20.90;99.90;;;;;;5068406;28;20036;-87
2023/06/29 07:36:25;;;;;;;28.85;22.38;;;21.20;99.90;;;;;;5064283;28;20044;-87
2023/06/29 07:38:51;;;;;;;28.13;21.77;;;21.30;99.90;;;;;;5045365;28;20052;-86
2023/06/29 07:41:17;;;;;;;28.15;21.65;;;21.30;99.90;;;;;;5054503;28;20041;-87
2023/06/29 07:43:48;;;;;;;28.67;22.10;;;21.50;99.90;;;;;;5048760;28;20048;-87
2023/06/29 07:46:13;;;;;;;29.35;22.40;;;21.60;99.90;;;;;;5048602;28;20044;-88
2023/06/29 07:48:39;;;;;;;28.77;23.67;;;21.90;99.90;;;;;;5057835;28;20053;-88
2023/06/29 07:51:05;;;;;;;26.92;22.50;;;21.80;99.90;;;;;;5061340;28;20059;-88
2023/06/29 07:53:31;;;;;;;32.17;25.00;;;21.80;99.90;;;;;;5051730;28;20028;-89
2023/06/29 07:55:59;;;;;;;29.90;24.20;;;21.80;99.90;;;;;;5067949;28;20500;-88
2023/06/29 07:58:25;;;;;;;33.47;23.98;;;21.80;99.90;;;;;;5056836;28;20045;-88
2023/06/29 08:00:50;;;;;;;35.33;26.25;;;21.70;99.90;;;;;;5052656;28;20115;-86
2023/06/29 08:03:16;;;;;;;34.00;24.67;;;21.70;99.90;;;;;;5067447;28;20132;-88
2023/06/29 08:05:41;;;;;;;30.48;25.80;;;21.70;99.90;;;;;;5054079;28;20048;-89
2023/06/29 08:08:07;;;;;;;28.98;24.58;;;21.80;99.90;;;;;;5055677;28;20040;-87
2023/06/29 08:10:32;;;;;;;33.63;26.27;;;21.70;99.90;;;;;;5068412;28;20420;-87
2023/06/29 08:12:58;;;;;;;34.38;25.98;;;21.60;99.90;;;;;;5067318;28;20044;-86
2023/06/29 08:15:23;;;;;;;33.72;25.15;;;21.50;99.90;;;;;;5049880;28;20041;-87
2023/06/29 08:17:49;;;;;;;31.50;25.45;;;21.50;99.90;;;;;;5049647;28;20055;-87
2023/06/29 08:20:15;;;;;;;31.27;24.73;;;21.40;99.90;;;;;;5052121;28;20044;-89
2023/06/29 08:22:43;;;;;;;32.70;24.98;;;21.70;99.90;;;;;;5049210;28;20570;-90
2023/06/29 08:25:09;;;;;;;35.05;24.92;;;21.30;99.90;;;;;;5050513;28;20045;-89
2023/06/29 08:27:35;;;;;;;34.92;26.08;;;21.40;99.90;;;;;;5066736;28;20117;-87
2023/06/29 08:30:01;;;;;;;32.88;25.02;;;21.40;99.90;;;;;;5066699;28;20059;-86
2023/06/29 08:32:27;;;;;;;34.40;26.02;;;21.50;99.90;;;;;;5067246;28;20131;-86
2023/06/29 08:34:52;;;;;;;33.72;26.85;;;21.60;99.90;;;;;;5065966;28;20063;-86
2023/06/29 08:37:18;;;;;;;32.22;25.60;;;21.80;99.90;;;;;;5067383;28;20047;-85
2023/06/29 08:39:44;;;;;;;31.95;24.98;;;22.00;99.90;;;;;;5066432;28;20197;-85
2023/06/29 08:42:09;;;;;;;32.58;25.27;;;21.90;99.90;;;;;;5064141;28;20047;-84
2023/06/29 08:44:35;;;;;;;32.92;26.33;;;22.10;99.90;;;;;;5065827;28;20044;-83
2023/06/29 08:47:01;;;;;;;32.80;25.92;;;22.20;99.90;;;;;;5065269;28;20086;-84
2023/06/29 08:49:27;;;;;;;33.17;25.35;;;22.30;99.90;;;;;;5066502;28;20048;-83
2023/06/29 08:51:58;;;;;;;29.40;24.90;;;22.40;99.90;;;;;;5068788;28;20040;-87
2023/06/29 08:54:26;;;;;;;28.95;23.40;;;22.60;99.90;;;;;;5053384;28;20052;-86
2023/06/29 08:56:52;;;;;;;30.40;22.67;;;23.00;99.90;;;;;;5068865;28;20052;-87
2023/06/29 08:59:18;;;;;;;29.63;22.40;;;22.90;99.90;;;;;;5069497;28;20089;-86
2023/06/29 09:01:45;;;;;;;31.13;22.33;;;23.20;99.90;;;;;;5053462;28;20041;-86
2023/06/29 09:04:11;;;;;;;28.02;21.48;;;23.10;99.90;;;;;;5069348;28;20484;-86
2023/06/29 09:06:40;;;;;;;29.15;22.33;;;23.10;99.90;;;;;;5070022;28;20074;-86
2023/06/29 09:09:06;;;;;;;28.70;21.77;;;23.00;99.90;;;;;;5065552;28;20044;-88
2023/06/29 09:11:34;;;;;;;28.95;21.10;;;23.10;99.90;;;;;;5065179;28;20060;-87
2023/06/29 09:14:05;;;;;;;28.33;21.58;;;23.20;99.90;;;;;;5068191;28;20500;-87
2023/06/29 09:16:31;;;;;;;27.75;21.77;;;22.70;99.90;;;;;;5070388;28;20050;-88
2023/06/29 09:18:57;;;;;;;25.63;21.02;;;22.70;99.90;;;;;;5068205;28;20048;-87
2023/06/29 09:21:25;;;;;;;26.83;21.48;;;23.00;99.90;;;;;;5069742;28;20126;-87
2023/06/29 09:23:54;;;;;;;27.08;20.73;;;22.80;99.90;;;;;;5052406;28;20044;-86
2023/06/29 09:26:23;;;;;;;26.98;21.00;;;23.10;99.90;;;;;;5035983;28;20086;-86
2023/06/29 09:28:49;;;;;;;27.58;20.73;;;22.90;99.90;;;;;;5049759;28;20057;-85
2023/06/29 09:31:14;;;;;;;25.55;20.80;;;22.90;99.90;;;;;;5049517;28;20041;-86
2023/06/29 09:33:40;;;;;;;27.48;21.73;;;23.10;99.90;;;;;;5049565;28;20127;-86
2023/06/29 09:36:09;;;;;;;26.25;21.40;;;23.00;99.90;;;;;;5049288;28;20033;-86
2023/06/29 09:38:35;;;;;;;24.98;18.70;;;22.90;99.90;;;;;;5049720;28;20036;-85
2023/06/29 09:41:00;;;;;;;23.58;18.58;;;23.00;99.90;;;;;;5064441;28;20131;-87
2023/06/29 09:43:28;;;;;;;22.40;18.05;;;23.00;99.90;;;;;;5070102;28;20457;-85
2023/06/29 09:46:07;;;;;;;21.70;17.02;;;22.80;99.90;;;;;;5068108;28;20040;-87
2023/06/29 09:48:43;;;;;;;23.40;18.67;;;22.80;99.90;;;;;;5051398;28;20040;-86
2023/06/29 09:51:08;;;;;;;20.65;17.92;;;22.60;99.90;;;;;;5067658;28;20412;-88
2023/06/29 09:53:34;;;;;;;21.05;17.95;;;22.60;99.90;;;;;;5069262;28;20044;-88
2023/06/29 09:56:02;;;;;;;21.55;17.45;;;22.30;99.90;;;;;;5050956;28;20044;-88
2023/06/29 09:58:29;;;;;;;23.77;18.95;;;22.10;99.90;;;;;;5049502;28;20052;-87
2023/06/29 10:00:58;;;;;;;23.33;17.75;;;22.40;99.90;;;;;;5052416;28;20124;-86
2023/06/29 10:03:31;;;;;;;23.55;18.88;;;22.20;99.90;;;;;;5069925;28;20043;-87
2023/06/29 10:06:11;;;;;;;25.60;19.67;;;21.80;99.90;;;;;;5070545;28;20066;-88
2023/06/29 10:08:40;;;;;;;22.85;18.15;;;21.80;99.90;;;;;;5072692;28;20406;-89
2023/06/29 10:11:05;;;;;;;25.45;19.48;;;21.90;99.90;;;;;;5071448;28;20113;-88
2023/06/29 10:13:46;;;;;;;25.00;18.88;;;21.60;99.90;;;;;;5071457;28;20488;-89
2023/06/29 10:16:14;;;;;;;27.58;19.02;;;21.60;99.90;;;;;;5054976;28;20036;-88
2023/06/29 10:18:43;;;;;;;24.50;19.77;;;21.60;99.90;;;;;;5049870;28;20056;-88
2023/06/29 10:21:09;;;;;;;23.65;19.17;;;21.50;99.90;;;;;;5051790;28;20053;-87
2023/06/29 10:23:37;;;;;;;25.90;19.45;;;21.50;99.90;;;;;;5065747;28;20063;-87
2023/06/29 10:26:05;;;;;;;26.05;19.45;;;21.20;99.90;;;;;;5070320;28;20052;-88
2023/06/29 10:28:32;;;;;;;28.15;20.85;;;21.40;99.90;;;;;;5068937;28;20044;-88
2023/06/29 10:30:59;;;;;;;27.60;20.38;;;21.50;99.90;;;;;;5064476;28;20456;-89
2023/06/29 10:33:26;;;;;;;24.13;19.67;;;21.50;99.90;;;;;;5054546;28;20037;-89
2023/06/29 10:35:56;;;;;;;26.35;20.08;;;21.70;99.90;;;;;;5052231;28;20131;-89
2023/06/29 10:38:30;;;;;;;24.38;19.52;;;21.80;99.90;;;;;;5066999;28;20067;-88
2023/06/29 10:40:56;;;;;;;27.55;20.88;;;22.00;99.90;;;;;;5049039;28;20037;-83
2023/06/29 10:43:25;;;;;;;23.45;19.70;;;22.10;99.90;;;;;;5052808;28;20111;-88
2023/06/29 10:45:53;;;;;;;28.30;21.52;;;22.20;99.90;;;;;;5086174;28;20040;-88
2023/06/29 10:48:20;;;;;;;25.50;20.98;;;22.30;99.90;;;;;;5053624;28;20748;-89
2023/06/29 10:50:47;;;;;;;24.63;19.48;;;22.30;99.90;;;;;;5068950;28;20420;-88
2023/06/29 10:53:20;;;;;;;28.13;20.40;;;22.50;99.90;;;;;;5052767;28;20045;-88
2023/06/29 10:55:51;;;;;;;24.85;20.08;;;22.50;99.90;;;;;;5049697;28;20493;-88
2023/06/29 10:58:31;;;;;;;27.48;20.33;;;22.60;99.90;;;;;;5049067;28;20068;-88
2023/06/29 11:00:57;;;;;;;29.20;21.13;;;22.50;99.90;;;;;;5049967;28;20450;-88
2023/06/29 11:03:24;;;;;;;26.75;20.38;;;22.50;99.90;;;;;;5062187;28;20098;-88
2023/06/29 11:05:51;;;;;;;24.35;19.92;;;22.60;99.90;;;;;;5068419;28;20056;-88
2023/06/29 11:08:19;;;;;;;25.08;20.55;;;22.70;99.90;;;;;;5069513;28;20045;-87
2023/06/29 11:10:44;;;;;;;24.88;20.33;;;22.90;99.90;;;;;;5051560;28;20048;-86
2023/06/29 11:13:10;;;;;;;26.65;21.08;;;23.10;99.90;;;;;;5068779;28;20528;-87
2023/06/29 11:15:36;;;;;;;25.40;20.48;;;23.10;99.90;;;;;;5065839;28;20048;-87
2023/06/29 11:18:04;;;;;;;26.85;20.33;;;23.20;99.90;;;;;;5067590;28;20533;-86
2023/06/29 11:20:30;;;;;;;25.02;20.15;;;23.40;99.90;;;;;;5066713;28;20040;-88
2023/06/29 11:22:57;;;;;;;28.02;22.42;;;23.60;99.90;;;;;;5067134;28;20408;-85
2023/06/29 11:25:23;;;;;;;26.58;20.52;;;23.80;99.90;;;;;;5067780;28;20048;-85
2023/06/29 11:27:48;;;;;;;27.50;21.00;;;23.90;99.90;;;;;;5050265;28;20804;-85
2023/06/29 11:30:14;;;;;;;24.92;21.10;;;24.10;99.90;;;;;;5050549;28;20048;-85
2023/06/29 11:32:41;;;;;;;25.10;20.73;;;23.90;99.90;;;;;;5050801;28;20120;-85
2023/06/29 11:35:12;;;;;;;25.60;20.98;;;24.30;99.90;;;;;;5066396;28;20098;-86
2023/06/29 11:37:39;;;;;;;25.88;20.60;;;24.00;99.90;;;;;;5067454;28;20488;-85
2023/06/29 11:40:14;;;;;;;23.52;19.95;;;24.10;99.90;;;;;;5066748;28;20044;-85
2023/06/29 11:42:41;;;;;;;25.40;20.67;;;24.30;99.90;;;;;;5067177;28;20049;-85
2023/06/29 11:45:07;;;;;;;27.50;22.10;;;24.30;99.90;;;;;;5067012;28;20083;-86
2023/06/29 11:47:33;;;;;;;23.80;20.55;;;24.30;99.90;;;;;;5083986;28;20135;-87
2023/06/29 11:50:04;;;;;;;27.48;21.42;;;24.30;99.90;;;;;;5065564;28;20469;-86
2023/06/29 11:52:32;;;;;;;25.45;20.80;;;24.40;99.90;;;;;;5082301;28;20052;-86
2023/06/29 11:55:07;;;;;;;25.88;20.27;;;24.60;99.90;;;;;;5066518;28;20051;-86
2023/06/29 11:57:33;;;;;;;23.70;19.63;;;24.70;99.90;;;;;;5066660;28;20069;-86
2023/06/29 12:00:00;;;;;;;25.35;20.67;;;24.90;99.90;;;;;;5067574;28;20123;-86
2023/06/29 12:02:27;;;;;;;24.48;20.58;;;25.20;99.90;;;;;;5067032;28;20125;-86
2023/06/29 12:05:04;;;;;;;25.92;19.55;;;25.10;99.90;;;;;;5065917;28;20052;-86
2023/06/29 12:07:41;;;;;;;22.15;19.02;;;24.90;99.90;;;;;;5066174;28;20037;-86
2023/06/29 12:10:12;;;;;;;22.67;18.65;;;24.90;99.90;;;;;;5065692;28;20072;-85
2023/06/29 12:12:46;;;;;;;24.08;19.83;;;24.70;99.90;;;;;;5063597;28;20048;-89
2023/06/29 12:15:17;;;;;;;23.67;19.65;;;24.40;99.90;;;;;;5068074;28;20045;-89
2023/06/29 12:17:43;;;;;;;23.50;19.63;;;24.70;99.90;;;;;;5067853;28;20669;-88
2023/06/29 12:20:15;;;;;;;24.15;19.80;;;24.50;99.90;;;;;;5067852;28;20174;-88
2023/06/29 12:22:42;;;;;;;22.23;18.77;;;24.70;99.90;;;;;;5069179;28;20048;-89
2023/06/29 12:25:16;;;;;;;24.67;18.88;;;24.60;99.90;;;;;;5069748;28;20056;-87
2023/06/29 12:27:47;;;;;;;21.85;18.92;;;24.50;99.90;;;;;;5052166;28;20053;-89